Accueil
METAR-TAF:

METAR-TAF

Aéroports :

Aérodrome d'Amborovy

Majunga, Madagascar

latitude: 15-40S, longitude: 046-21E, altitude: 26 m

Observation

Le bulletin a été fait il y a 45 minutes, à 01:00 UTC
Vent 4 kt de est
Température 25°C
Humidité 100%
Pression 1010 hPa
Visibilité 10 km ou plus
Quelques nuages à une hauteur de 2000 ft, Cumulonimbus.
Nuages épars à une hauteur de 4000 ft

METAR: FMNM 220100Z 10004KT 9999 FEW020CB SCT040 25/25 Q1010

Heure: 04:45 (01:45 UTC)

Prévision

Le bulletin a été fait il y a 2 heures et 45 minutes, à 23:00 UTC
Prévision valable du 22 à 00 UTC au 22 à 24 UTC
Vent 5 kt de est/sud-est
Visibilité 10 km ou plus
Nuages épars à une hauteur de 2000 ft, Cumulonimbus.
Nuages épars à une hauteur de 4000 ft
Temporairement
du 22 à 02 UTC au 22 à 20 UTC
Visibilité: 4000 m
orage, pluie

TAF: FMNM 212300Z 2200/2224 12005KT 9999 SCT020CB SCT040 TEMPO 2202/2220 4000 TSRA

Observations et prévisions météorologiques de plus de 4000 aéroports (messages METAR et TAF).

Les stations disponibles sont représentées par des disques jaunes et rouges sur la carte.

Passer la souris dessus pour voir le nom de la station.

Cliquer dessus pour voir les observations et prévisions météorologiques.

Pour changer de carte: cliquez sur les boutons verts avec une croix noire pour zoomer, sur le bouton vert avec un tiret pour effectuer un zoom arrière, ou sur les flèches vertes pour les cartes adjacentes.


METAR-TAF: